Time;durP1;ratioP1;P1;durP2;ratioP2;P2;SDS_P1;SDS_P2;PMS_P1;PMS_P2;Temp;Humidity;BMP_temperature;BMP_pressure;BME280_temperature;BME280_humidity;BME280_pressure;Samples;Min_cycle;Max_cycle;Signal;HPM_P1;HPM_P2
2023/04/08 00:01:51;;;;;;;18.63;13.13;;;;;;;10.81;48.61;94687.72;5047848;28;20194;-55
2023/04/08 00:04:17;;;;;;;19.87;14.00;;;;;;;10.77;48.66;94684.63;5049985;28;20210;-55
2023/04/08 00:06:45;;;;;;;17.53;12.67;;;;;;;10.79;48.61;94687.88;5049607;28;20190;-53
2023/04/08 00:09:12;;;;;;;19.53;13.27;;;;;;;10.76;48.81;94684.78;5049751;28;20649;-54
2023/04/08 00:11:39;;;;;;;14.73;11.53;;;;;;;10.74;48.78;94690.00;5049503;28;20199;-52
2023/04/08 00:14:06;;;;;;;17.77;12.80;;;;;;;10.73;48.85;94685.03;5048560;28;20285;-54
2023/04/08 00:16:33;;;;;;;19.17;13.47;;;;;;;10.77;48.75;94691.50;5050075;28;20575;-54
2023/04/08 00:19:00;;;;;;;18.60;12.47;;;;;;;10.74;49.01;94684.09;5049308;28;20257;-55
2023/04/08 00:21:26;;;;;;;16.67;11.97;;;;;;;10.75;49.13;94686.53;5049414;28;20904;-56
2023/04/08 00:23:55;;;;;;;18.10;13.67;;;;;;;10.73;49.00;94680.72;5045881;28;20201;-53
2023/04/08 00:26:22;;;;;;;16.80;13.07;;;;;;;10.71;49.02;94681.84;5029299;28;20196;-54
2023/04/08 00:28:49;;;;;;;17.67;12.87;;;;;;;10.68;49.16;94679.53;5029898;28;20200;-51
2023/04/08 00:31:16;;;;;;;20.87;12.97;;;;;;;10.72;49.12;94681.69;5032040;28;20192;-53
2023/04/08 00:33:42;;;;;;;19.13;13.37;;;;;;;10.70;49.21;94680.19;5047503;28;20209;-52
2023/04/08 00:36:09;;;;;;;17.80;12.70;;;;;;;10.70;49.22;94682.75;5034782;28;20191;-52
2023/04/08 00:38:36;;;;;;;19.47;12.47;;;;;;;10.69;49.23;94681.94;5028904;28;20327;-55
2023/04/08 00:41:04;;;;;;;18.13;13.30;;;;;;;10.68;49.36;94682.91;5029708;28;20195;-51
2023/04/08 00:43:31;;;;;;;14.77;12.33;;;;;;;10.66;49.30;94683.97;5037038;28;20249;-51
2023/04/08 00:45:58;;;;;;;16.90;12.03;;;;;;;10.64;49.22;94681.56;5046931;28;20191;-52
2023/04/08 00:48:25;;;;;;;22.73;13.20;;;;;;;10.63;49.37;94681.72;5048393;28;20188;-53
2023/04/08 00:50:52;;;;;;;17.50;13.27;;;;;;;10.67;49.45;94691.53;5047278;28;20187;-54
2023/04/08 00:53:19;;;;;;;18.07;12.20;;;;;;;10.67;49.39;94693.28;5049028;28;20195;-55
2023/04/08 00:55:46;;;;;;;15.47;12.53;;;;;;;10.66;49.64;94689.09;5048959;28;20202;-54
2023/04/08 00:58:15;;;;;;;17.00;12.33;;;;;;;10.67;49.49;94693.28;5048799;28;20218;-54
2023/04/08 01:00:46;;;;;;;17.70;12.77;;;;;;;10.64;49.81;94684.13;5039856;28;20341;-54
2023/04/08 01:03:18;;;;;;;17.80;12.27;;;;;;;10.67;49.65;94690.72;5029507;28;20206;-53
2023/04/08 01:05:54;;;;;;;23.70;13.13;;;;;;;10.67;49.57;94688.97;5028733;28;20191;-54
2023/04/08 01:08:23;;;;;;;14.97;12.47;;;;;;;10.67;49.61;94693.28;5029229;28;20222;-53
2023/04/08 01:10:53;;;;;;;15.80;11.80;;;;;;;10.63;49.73;94687.63;5031128;28;20179;-52
2023/04/08 01:13:23;;;;;;;19.10;12.87;;;;;;;10.62;49.76;94690.31;5041615;28;20196;-52
2023/04/08 01:15:50;;;;;;;24.00;14.03;;;;;;;10.63;49.75;94699.63;5028843;28;20211;-50
2023/04/08 01:18:18;;;;;;;17.73;12.10;;;;;;;10.62;49.77;94693.69;5028990;28;20776;-53
2023/04/08 01:20:46;;;;;;;16.87;12.40;;;;;;;10.64;49.82;94702.03;5029828;28;20646;-54
2023/04/08 01:23:20;;;;;;;19.87;12.93;;;;;;;10.49;49.82;94675.25;5045995;28;20252;-54
2023/04/08 01:25:49;;;;;;;18.00;12.87;;;;;;;10.65;49.80;94698.50;5048813;28;20199;-53
2023/04/08 01:28:19;;;;;;;16.33;12.93;;;;;;;10.66;49.90;94696.75;5048795;28;20206;-54
2023/04/08 01:30:47;;;;;;;15.07;12.40;;;;;;;10.66;49.96;94701.88;5047048;28;20199;-55
2023/04/08 01:33:17;;;;;;;19.37;13.37;;;;;;;10.62;49.77;94693.69;5037632;28;20184;-55
2023/04/08 01:35:45;;;;;;;17.23;13.37;;;;;;;10.66;49.91;94699.31;5032438;28;20192;-55
2023/04/08 01:38:19;;;;;;;19.03;12.93;;;;;;;10.41;50.19;94660.63;5032676;28;20314;-54
2023/04/08 01:40:47;;;;;;;18.63;13.07;;;;;;;10.63;50.05;94694.50;5032338;28;20268;-53
2023/04/08 01:43:17;;;;;;;18.00;13.03;;;;;;;10.63;50.06;94697.06;5039461;28;20191;-52
2023/04/08 01:45:45;;;;;;;16.53;13.93;;;;;;;10.62;49.97;94696.25;5052382;28;20191;-53
2023/04/08 01:48:14;;;;;;;21.43;13.67;;;;;;;10.62;50.02;94701.38;5052433;28;20921;-53
2023/04/08 01:50:42;;;;;;;17.90;13.37;;;;;;;10.62;50.26;94700.53;5052163;28;20223;-54
2023/04/08 01:53:09;;;;;;;19.83;14.30;;;;;;;10.11;50.26;94622.44;5050680;28;20199;-54
2023/04/08 01:55:38;;;;;;;19.93;13.23;;;;;;;10.54;50.29;94696.13;5032533;28;20187;-53
2023/04/08 01:58:07;;;;;;;15.03;12.13;;;;;;;10.59;50.24;94698.28;5032294;28;20312;-53
2023/04/08 02:00:37;;;;;;;22.30;15.13;;;;;;;10.55;50.23;94698.53;5031994;28;20199;-53
2023/04/08 02:03:06;;;;;;;22.20;14.73;;;;;;;10.60;50.33;94713.47;5033484;28;20190;-53
2023/04/08 02:05:34;;;;;;;20.47;15.17;;;;;;;10.59;50.36;94714.41;5045201;28;20554;-52
2023/04/08 02:08:01;;;;;;;22.20;13.30;;;;;;;10.59;50.51;94728.97;5051482;28;20202;-53
2023/04/08 02:10:28;;;;;;;20.67;14.13;;;;;;;10.55;50.48;94715.63;5051950;28;20261;-53
2023/04/08 02:12:55;;;;;;;20.90;14.73;;;;;;;10.57;50.50;94718.06;5051924;28;20674;-56
2023/04/08 02:15:22;;;;;;;19.63;14.37;;;;;;;10.57;50.59;94721.41;5043625;28;20215;-54
2023/04/08 02:17:55;;;;;;;20.10;14.63;;;;;;;10.51;50.63;94717.66;5031913;28;20545;-54
2023/04/08 02:20:26;;;;;;;25.70;16.03;;;;;;;10.44;50.48;94708.09;5032020;28;20222;-54
2023/04/08 02:22:59;;;;;;;20.10;15.40;;;;;;;10.54;50.53;94719.94;5031998;28;20195;-54
2023/04/08 02:25:29;;;;;;;20.07;14.93;;;;;;;10.55;50.72;94718.19;5033162;28;20652;-55
2023/04/08 02:27:57;;;;;;;20.60;14.00;;;;;;;10.51;50.56;94724.53;5031480;28;20576;-54
2023/04/08 02:30:25;;;;;;;18.67;15.47;;;;;;;10.53;50.61;94723.47;5032153;28;20188;-54
2023/04/08 02:32:54;;;;;;;22.33;15.87;;;;;;;10.51;50.69;94716.84;5031291;28;20186;-54
2023/04/08 02:35:21;;;;;;;21.30;15.93;;;;;;;10.52;50.63;94714.16;5032643;28;20262;-52
2023/04/08 02:37:48;;;;;;;22.13;15.87;;;;;;;10.51;50.75;94717.66;5031266;28;20304;-54
2023/04/08 02:40:26;;;;;;;25.73;17.80;;;;;;;10.52;50.84;94723.56;5031557;28;20219;-51
2023/04/08 02:42:53;;;;;;;21.77;15.70;;;;;;;10.51;51.10;94722.78;5031508;28;20196;-54
2023/04/08 02:45:20;;;;;;;23.20;16.70;;;;;;;10.51;50.73;94724.53;5031422;28;20265;-54
2023/04/08 02:47:47;;;;;;;21.03;16.30;;;;;;;10.50;50.85;94723.72;5041637;28;20655;-53
2023/04/08 02:50:15;;;;;;;22.53;16.20;;;;;;;10.39;50.82;94702.59;5031455;28;20196;-53
2023/04/08 02:52:43;;;;;;;23.90;17.17;;;;;;;10.46;50.92;94717.25;5031355;28;20258;-53
2023/04/08 02:55:10;;;;;;;24.67;16.37;;;;;;;10.46;50.94;94711.34;5031264;28;20192;-54
2023/04/08 02:57:37;;;;;;;23.77;16.00;;;;;;;10.47;51.06;94715.50;5034052;28;20194;-55
2023/04/08 03:00:06;;;;;;;23.00;17.33;;;;;;;10.47;50.94;94718.88;5050984;28;20679;-53
2023/04/08 03:02:32;;;;;;;26.00;17.03;;;;;;;10.48;50.83;94720.47;5051170;28;20191;-58
2023/04/08 03:04:59;;;;;;;27.67;17.33;;;;;;;10.47;51.02;94726.53;5051028;28;20209;-53
2023/04/08 03:07:28;;;;;;;22.13;15.97;;;;;;;10.45;50.93;94720.78;5049098;28;20241;-54
2023/04/08 03:09:55;;;;;;;24.67;16.50;;;;;;;10.48;50.92;94727.34;5035451;28;20227;-54
2023/04/08 03:12:21;;;;;;;22.30;16.23;;;;;;;10.48;50.80;94720.47;5030975;28;20647;-51
2023/04/08 03:14:48;;;;;;;23.00;16.50;;;;;;;10.33;51.03;94698.84;5030810;28;20196;-53
2023/04/08 03:17:15;;;;;;;23.80;16.33;;;;;;;10.44;50.91;94720.88;5031087;28;20618;-53
2023/04/08 03:19:42;;;;;;;24.43;16.83;;;;;;;10.45;50.97;94713.09;5039614;28;20202;-53
2023/04/08 03:22:09;;;;;;;22.10;16.73;;;;;;;10.39;51.08;94711.06;5050854;28;20191;-54
2023/04/08 03:24:37;;;;;;;21.70;16.17;;;;;;;10.44;51.24;94721.69;5050382;28;20276;-54
2023/04/08 03:27:04;;;;;;;22.57;14.97;;;;;;;10.44;51.11;94720.88;5049498;28;20244;-52
2023/04/08 03:29:31;;;;;;;22.57;15.87;;;;;;;10.36;51.25;94708.78;5047878;28;20198;-54
2023/04/08 03:31:58;;;;;;;23.00;16.30;;;;;;;10.44;51.21;94723.44;5046181;28;20292;-53
2023/04/08 03:34:25;;;;;;;22.30;16.33;;;;;;;10.41;51.08;94726.28;5050334;28;20199;-55
2023/04/08 03:36:51;;;;;;;22.10;15.97;;;;;;;10.43;51.38;94725.19;5050305;28;20194;-52
2023/04/08 03:39:19;;;;;;;19.77;14.57;;;;;;;10.43;51.04;94725.19;5046498;28;21826;-53
2023/04/08 03:41:47;;;;;;;21.97;15.57;;;;;;;10.41;51.31;94727.09;5030249;28;20726;-55
2023/04/08 03:44:14;;;;;;;24.13;16.00;;;;;;;10.39;51.23;94723.84;5030049;28;20608;-53
2023/04/08 03:46:41;;;;;;;24.03;15.83;;;;;;;10.39;51.41;94721.28;5030144;28;20242;-53
2023/04/08 03:49:08;;;;;;;20.00;14.87;;;;;;;10.41;51.32;94718.63;5030356;28;20659;-52
2023/04/08 03:51:34;;;;;;;20.70;15.30;;;;;;;10.39;51.40;94726.41;5039112;28;20191;-51
2023/04/08 03:54:01;;;;;;;24.00;15.77;;;;;;;10.37;51.33;94719.84;5040378;28;20527;-54
2023/04/08 03:56:28;;;;;;;20.27;16.03;;;;;;;10.38;51.37;94718.88;5049301;28;20675;-53
2023/04/08 03:58:56;;;;;;;18.17;13.50;;;;;;;10.38;51.49;94722.25;5049784;28;20292;-56
2023/04/08 04:01:23;;;;;;;26.13;16.87;;;;;;;10.37;51.29;94725.75;5047950;28;20183;-53
2023/04/08 04:03:50;;;;;;;22.33;15.67;;;;;;;10.37;51.42;94723.19;5030383;28;20184;-51
2023/04/08 04:06:16;;;;;;;20.17;15.50;;;;;;;10.37;51.42;94723.19;5029596;28;20187;-54
2023/04/08 04:08:43;;;;;;;20.53;15.50;;;;;;;10.35;51.55;94717.41;5029505;28;20679;-53
2023/04/08 04:11:10;;;;;;;18.77;14.97;;;;;;;10.37;51.59;94723.19;5030376;28;20559;-51
2023/04/08 04:13:37;;;;;;;21.53;15.07;;;;;;;10.39;51.46;94721.28;5041322;28;20705;-54
2023/04/08 04:16:05;;;;;;;19.57;14.70;;;;;;;10.38;51.51;94721.44;5049109;28;20252;-52
2023/04/08 04:18:32;;;;;;;24.17;16.30;;;;;;;10.38;51.63;94726.56;5049347;28;20195;-56
2023/04/08 04:20:59;;;;;;;22.27;15.87;;;;;;;10.35;51.48;94725.06;5049769;28;20194;-53
2023/04/08 04:23:26;;;;;;;17.43;13.97;;;;;;;10.39;51.60;94731.53;5042536;28;20168;-53
2023/04/08 04:25:53;;;;;;;20.63;15.67;;;;;;;10.33;51.58;94726.97;5029719;28;20183;-52
2023/04/08 04:28:19;;;;;;;21.20;15.87;;;;;;;10.40;51.63;94734.88;5028958;28;20188;-55
2023/04/08 04:30:46;;;;;;;20.90;15.37;;;;;;;10.41;51.66;94736.53;5034476;28;20196;-54
2023/04/08 04:33:14;;;;;;;21.03;15.77;;;;;;;10.40;51.64;94737.44;5034313;28;20183;-53
2023/04/08 04:35:41;;;;;;;20.37;14.93;;;;;;;10.41;51.67;94737.31;5029528;28;20192;-53
2023/04/08 04:38:11;;;;;;;19.53;14.30;;;;;;;10.42;51.72;94738.13;5030194;28;20638;-53
2023/04/08 04:40:38;;;;;;;25.97;16.37;;;;;;;10.43;51.72;94737.19;5029189;28;20277;-52
2023/04/08 04:43:05;;;;;;;21.20;15.17;;;;;;;10.44;51.74;94737.03;5030385;28;20191;-53
2023/04/08 04:45:31;;;;;;;18.63;15.47;;;;;;;10.44;51.82;94734.47;5046015;28;20199;-56
2023/04/08 04:47:58;;;;;;;23.83;14.80;;;;;;;10.43;51.80;94732.88;5048726;28;20629;-54
2023/04/08 04:50:26;;;;;;;21.80;15.33;;;;;;;10.46;51.77;94734.34;5049381;28;20183;-55
2023/04/08 04:52:53;;;;;;;20.13;15.17;;;;;;;10.47;51.70;94741.88;5032968;28;20547;-54
2023/04/08 04:55:21;;;;;;;19.03;14.63;;;;;;;10.48;51.66;94737.56;5029690;28;20267;-53
2023/04/08 04:57:48;;;;;;;22.23;15.40;;;;;;;10.51;51.55;94739.88;5030315;28;20187;-52
2023/04/08 05:00:15;;;;;;;21.90;14.90;;;;;;;10.52;51.65;94742.28;5027948;28;20223;-52
2023/04/08 05:02:42;;;;;;;19.90;15.27;;;;;;;10.57;51.75;94746.97;5029240;28;20221;-53
2023/04/08 05:05:09;;;;;;;23.47;15.67;;;;;;;10.60;51.51;94748.47;5029015;28;20204;-54
2023/04/08 05:07:37;;;;;;;18.30;14.67;;;;;;;10.62;51.52;94744.84;5042550;28;20195;-55
2023/04/08 05:10:05;;;;;;;19.70;15.27;;;;;;;10.67;51.43;94747.78;5050840;28;20229;-54
2023/04/08 05:12:32;;;;;;;24.33;15.60;;;;;;;10.68;51.33;94744.28;5053392;28;20187;-55
2023/04/08 05:14:59;;;;;;;20.80;15.57;;;;;;;10.74;51.20;94743.72;5053072;28;20202;-54
2023/04/08 05:17:26;;;;;;;21.60;16.17;;;;;;;10.82;51.52;94750.72;5051753;28;20552;-54
2023/04/08 05:19:53;;;;;;;19.37;14.30;;;;;;;10.86;51.18;94752.06;5052545;28;20599;-55
2023/04/08 05:22:20;;;;;;;22.70;14.63;;;;;;;10.94;51.18;94749.63;5052877;28;20237;-56
2023/04/08 05:24:48;;;;;;;19.67;15.27;;;;;;;11.00;51.31;94750.81;5052834;28;20197;-53
2023/04/08 05:27:15;;;;;;;20.83;15.10;;;;;;;11.06;50.83;94740.03;5051474;28;20191;-52
2023/04/08 05:29:41;;;;;;;19.07;15.20;;;;;;;11.18;50.88;94744.03;5052446;28;20198;-53
2023/04/08 05:32:08;;;;;;;22.17;16.13;;;;;;;11.28;50.91;94744.00;5052451;28;20194;-54
2023/04/08 05:34:35;;;;;;;22.53;15.93;;;;;;;11.40;50.52;94747.16;5052820;28;20210;-54
2023/04/08 05:37:02;;;;;;;20.83;15.60;;;;;;;11.46;50.37;94736.38;5042852;28;20206;-53
2023/04/08 05:39:28;;;;;;;23.47;16.60;;;;;;;11.67;50.06;94748.94;5032445;28;20719;-53
2023/04/08 05:41:57;;;;;;;22.93;15.93;;;;;;;11.80;50.13;94749.41;5032491;28;21426;-54
2023/04/08 05:44:23;;;;;;;21.60;15.57;;;;;;;11.92;49.90;94744.94;5032678;28;20204;-54
2023/04/08 05:46:50;;;;;;;22.20;16.20;;;;;;;12.08;49.62;94739.94;5033365;28;20640;-55
2023/04/08 05:49:17;;;;;;;18.87;15.20;;;;;;;12.19;49.58;94749.19;5032643;28;20201;-53
2023/04/08 05:51:44;;;;;;;22.80;16.73;;;;;;;12.28;49.46;94746.56;5032667;28;20199;-52
2023/04/08 05:54:11;;;;;;;20.23;16.07;;;;;;;12.40;49.29;94744.59;5032515;28;20199;-55
2023/04/08 05:56:37;;;;;;;22.00;14.80;;;;;;;12.50;49.14;94741.94;5038285;28;20588;-56
2023/04/08 05:59:06;;;;;;;25.40;15.73;;;;;;;12.58;48.97;94744.56;5035791;28;20195;-56
2023/04/08 06:01:32;;;;;;;23.30;15.93;;;;;;;12.67;48.99;94740.31;5031946;28;20191;-57
2023/04/08 06:03:59;;;;;;;19.07;15.27;;;;;;;12.72;48.82;94736.31;5032266;28;20671;-55
2023/04/08 06:06:26;;;;;;;23.20;16.93;;;;;;;12.79;48.82;94732.22;5032571;28;20180;-55
2023/04/08 06:08:53;;;;;;;26.97;17.87;;;;;;;12.88;48.68;94739.97;5050887;28;20702;-56
2023/04/08 06:11:20;;;;;;;24.63;18.27;;;;;;;12.94;48.71;94726.53;5036343;28;20199;-54
2023/04/08 06:13:46;;;;;;;24.80;17.37;;;;;;;13.07;48.34;94739.75;5031925;28;20200;-54
2023/04/08 06:16:17;;;;;;;26.23;16.90;;;;;;;13.15;48.57;94739.81;5032213;28;20198;-54
2023/04/08 06:18:43;;;;;;;25.33;17.17;;;;;;;13.23;48.26;94733.94;5041541;28;20286;-55
2023/04/08 06:21:11;;;;;;;22.70;17.10;;;;;;;13.40;47.97;94742.53;5043845;28;20231;-50
2023/04/08 06:23:38;;;;;;;23.03;15.57;;;;;;;13.54;47.91;94742.75;5052400;28;20395;-51
2023/04/08 06:26:05;;;;;;;24.33;17.30;;;;;;;13.73;47.57;94741.72;5045694;28;20198;-52
2023/04/08 06:28:32;;;;;;;23.47;16.87;;;;;;;13.91;47.50;94739.03;5030310;28;21055;-56
2023/04/08 06:30:59;;;;;;;21.33;15.87;;;;;;;14.16;47.10;94745.03;5044867;28;20195;-56
2023/04/08 06:33:27;;;;;;;24.30;16.57;;;;;;;14.46;48.35;94738.44;5039313;28;20191;-57
2023/04/08 06:36:02;;;;;;;19.07;12.10;;;;;;;14.97;65.06;94744.25;5040522;28;20606;-55
2023/04/08 06:38:29;;;;;;;16.10;11.17;;;;;;;15.70;65.28;94745.06;5037815;28;20234;-53
2023/04/08 06:40:56;;;;;;;18.73;11.33;;;;;;;16.39;63.20;94742.59;5036889;28;20251;-54
2023/04/08 06:43:23;;;;;;;16.03;11.00;;;;;;;16.99;61.68;94745.19;5041455;28;20607;-53
2023/04/08 06:45:50;;;;;;;17.53;10.07;;;;;;;17.52;60.11;94747.72;5038835;28;20203;-53
2023/04/08 06:48:17;;;;;;;19.67;9.20;;;;;;;17.99;58.97;94747.34;5034210;28;20188;-53
2023/04/08 06:50:45;;;;;;;21.23;10.63;;;;;;;18.25;57.66;94720.13;5042060;28;20723;-55
2023/04/08 06:53:12;;;;;;;14.43;9.97;;;;;;;18.67;56.40;94747.03;5033224;28;20202;-52
2023/04/08 06:55:39;;;;;;;15.17;10.60;;;;;;;18.89;55.55;94745.25;5038534;28;20195;-57
2023/04/08 06:58:06;;;;;;;11.37;9.77;;;;;;;19.10;54.68;94741.81;5039789;28;20729;-53
2023/04/08 07:00:33;;;;;;;15.47;10.10;;;;;;;19.28;53.91;94749.91;5035912;28;20711;-54
2023/04/08 07:03:00;;;;;;;17.03;10.27;;;;;;;19.44;53.33;94748.84;5036727;28;20659;-55
2023/04/08 07:05:27;;;;;;;12.93;9.90;;;;;;;19.59;52.80;94741.72;5039041;28;20202;-55
2023/04/08 07:07:55;;;;;;;14.80;9.73;;;;;;;19.71;52.30;94742.00;5039204;28;20202;-53
2023/04/08 07:10:22;;;;;;;11.50;9.43;;;;;;;19.83;51.88;94748.25;5037958;28;20235;-55
2023/04/08 07:12:49;;;;;;;15.27;9.43;;;;;;;19.89;51.34;94751.88;5038714;28;20206;-54
2023/04/08 07:15:16;;;;;;;14.83;10.27;;;;;;;19.96;51.13;94753.50;5034291;28;20200;-54
2023/04/08 07:17:43;;;;;;;13.07;9.37;;;;;;;20.02;50.91;94755.31;5037907;28;20183;-56
2023/04/08 07:20:12;;;;;;;12.97;9.70;;;;;;;20.12;50.75;94759.31;5036431;28;20219;-54
2023/04/08 07:22:39;;;;;;;12.13;8.60;;;;;;;20.17;50.74;94760.38;5036779;28;20187;-54
2023/04/08 07:25:08;;;;;;;12.30;8.57;;;;;;;20.24;50.79;94763.75;5037704;28;20195;-52
2023/04/08 07:27:35;;;;;;;12.47;8.67;;;;;;;20.30;50.28;94757.81;5038567;28;20646;-55
2023/04/08 07:30:02;;;;;;;11.93;8.10;;;;;;;20.37;50.40;94762.19;5036375;28;20230;-53
2023/04/08 07:32:29;;;;;;;11.10;7.83;;;;;;;20.40;50.00;94764.41;5040132;28;20597;-52
2023/04/08 07:34:55;;;;;;;16.73;8.40;;;;;;;20.47;49.95;94770.44;5035820;28;20195;-56
2023/04/08 07:37:22;;;;;;;12.37;7.17;;;;;;;20.52;50.05;94774.06;5036292;28;20176;-53
2023/04/08 07:39:49;;;;;;;14.57;7.87;;;;;;;20.66;50.50;94764.50;5034876;28;20286;-56
2023/04/08 07:42:18;;;;;;;11.03;7.70;;;;;;;20.87;50.17;94773.91;5046567;28;20270;-56
2023/04/08 07:44:45;;;;;;;14.07;7.97;;;;;;;21.03;49.59;94770.94;5047712;28;20586;-54
2023/04/08 07:47:12;;;;;;;11.10;7.00;;;;;;;21.21;49.09;94774.72;5047401;28;20195;-55
2023/04/08 07:49:39;;;;;;;10.70;7.63;;;;;;;21.34;48.65;94769.53;5032993;28;20272;-54
2023/04/08 07:52:06;;;;;;;9.83;7.30;;;;;;;21.46;48.59;94783.53;5047290;28;20294;-55
2023/04/08 07:54:34;;;;;;;8.57;7.67;;;;;;;21.44;47.92;94782.13;5039328;28;20195;-53
2023/04/08 07:57:01;;;;;;;13.50;6.93;;;;;;;21.35;47.33;94791.16;5045796;28;20642;-53
2023/04/08 07:59:29;;;;;;;12.00;7.40;;;;;;;21.23;47.14;94785.72;5045459;28;20325;-53
2023/04/08 08:01:56;;;;;;;16.77;7.35;;;;;;;21.03;46.68;94770.13;5027280;28;20223;-55
2023/04/08 08:04:24;;;;;;;9.57;7.30;;;;;;;21.05;46.30;94802.72;5042599;28;20187;-54
2023/04/08 08:06:51;;;;;;;10.63;7.77;;;;;;;20.80;46.04;94786.09;5027371;28;20722;-53
2023/04/08 08:09:18;;;;;;;10.63;7.57;;;;;;;20.77;45.81;94795.09;5027060;28;20244;-54
2023/04/08 08:11:45;;;;;;;12.63;7.68;;;;;;;20.71;45.30;94792.47;5027089;28;20449;-55
2023/04/08 08:14:12;;;;;;;11.53;7.80;;;;;;;20.61;45.20;94797.28;5039221;28;20201;-54
2023/04/08 08:16:41;;;;;;;11.37;7.80;;;;;;;20.44;45.20;94789.81;5033003;28;20326;-55
2023/04/08 08:19:08;;;;;;;9.53;6.97;;;;;;;20.29;45.33;94796.94;5026742;28;20617;-53
2023/04/08 08:21:38;;;;;;;9.90;7.40;;;;;;;20.15;45.22;94797.91;5028347;28;20242;-54
2023/04/08 08:24:05;;;;;;;13.00;7.50;;;;;;;20.09;45.30;94802.09;5026702;28;20192;-56
2023/04/08 08:26:32;;;;;;;9.20;7.30;;;;;;;20.04;45.05;94807.84;5027034;28;20200;-53
2023/04/08 08:28:58;;;;;;;12.30;8.00;;;;;;;20.02;44.90;94801.25;5026789;28;20184;-54
2023/04/08 08:31:25;;;;;;;9.23;7.77;;;;;;;20.00;44.82;94803.25;5027022;28;20242;-53
2023/04/08 08:33:53;;;;;;;8.07;7.27;;;;;;;19.94;44.49;94796.22;5033075;28;20195;-52
2023/04/08 08:36:20;;;;;;;12.73;7.17;;;;;;;19.88;44.60;94800.38;5037708;28;20285;-53
2023/04/08 08:38:47;;;;;;;8.83;7.50;;;;;;;19.80;44.51;94793.56;5040899;28;20187;-54
2023/04/08 08:41:14;;;;;;;9.13;7.50;;;;;;;19.70;44.57;94794.91;5042507;28;20222;-52
2023/04/08 08:43:41;;;;;;;9.67;7.60;;;;;;;19.64;44.49;94796.44;5048532;28;20223;-53
2023/04/08 08:46:10;;;;;;;10.77;7.93;;;;;;;19.59;44.45;94798.78;5048634;28;20199;-53
2023/04/08 08:48:39;;;;;;;12.97;7.93;;;;;;;19.43;44.56;94783.50;5049481;28;20191;-53
2023/04/08 08:51:09;;;;;;;9.27;7.47;;;;;;;19.46;44.25;94786.53;5048794;28;20578;-54
2023/04/08 08:53:37;;;;;;;9.03;7.37;;;;;;;19.48;44.10;94797.53;5049019;28;20198;-53
2023/04/08 08:56:05;;;;;;;9.17;7.77;;;;;;;19.44;44.12;94798.91;5048887;28;20194;-54
2023/04/08 08:58:32;;;;;;;10.73;8.10;;;;;;;19.39;43.91;94801.28;5048956;28;20616;-52
2023/04/08 09:00:59;;;;;;;10.03;8.27;;;;;;;19.34;43.86;94798.41;5048523;28;20656;-52
2023/04/08 09:03:27;;;;;;;12.67;7.80;;;;;;;19.28;43.92;94800.00;5049199;28;20197;-51
2023/04/08 09:05:56;;;;;;;8.23;6.80;;;;;;;19.27;43.77;94795.00;5048615;28;20191;-53
2023/04/08 09:08:36;;;;;;;13.47;7.90;;;;;;;19.25;43.65;94795.16;5048719;28;20231;-53
2023/04/08 09:11:13;;;;;;;10.57;8.23;;;;;;;19.35;43.54;94800.06;5048652;28;20260;-54
2023/04/08 09:13:40;;;;;;;9.47;7.30;;;;;;;19.47;43.35;94795.94;5048966;28;20260;-54
2023/04/08 09:16:10;;;;;;;9.10;8.03;;;;;;;19.63;43.18;94799.25;5048163;28;20202;-54
2023/04/08 09:18:37;;;;;;;9.53;7.90;;;;;;;19.82;42.97;94803.75;5048867;28;20186;-53
2023/04/08 09:21:06;;;;;;;9.87;7.47;;;;;;;19.50;42.71;94717.72;5048068;28;20715;-53
2023/04/08 09:23:42;;;;;;;10.37;8.30;;;;;;;20.20;42.53;94792.91;5048602;28;20273;-54
2023/04/08 09:26:10;;;;;;;9.47;8.20;;;;;;;20.43;42.32;94800.41;5048372;28;20222;-52
2023/04/08 09:28:37;;;;;;;9.63;8.30;;;;;;;20.61;42.12;94800.69;5049102;28;20195;-54
2023/04/08 09:31:19;;;;;;;10.63;8.27;;;;;;;20.74;41.76;94784.31;5048429;28;20198;-53
2023/04/08 09:33:47;;;;;;;12.63;8.03;;;;;;;20.89;41.66;94791.91;5048966;28;20237;-52
2023/04/08 09:36:14;;;;;;;9.60;8.03;;;;;;;21.04;41.62;94787.31;5048553;28;20187;-53
2023/04/08 09:38:42;;;;;;;8.57;7.73;;;;;;;21.21;41.31;94777.31;5048755;28;20235;-52
2023/04/08 09:41:13;;;;;;;12.00;8.00;;;;;;;21.32;41.08;94779.31;5048718;28;20227;-59
2023/04/08 09:43:47;;;;;;;9.83;8.20;;;;;;;21.35;41.09;94771.13;5048842;28;20191;-53
2023/04/08 09:46:15;;;;;;;9.53;7.73;;;;;;;21.35;40.79;94768.53;5048621;28;20230;-54
2023/04/08 09:48:48;;;;;;;10.13;7.07;;;;;;;21.39;41.07;94761.91;5048653;28;20639;-54
2023/04/08 09:51:19;;;;;;;10.13;8.13;;;;;;;21.30;40.71;94745.69;5048364;28;20221;-51
2023/04/08 09:53:53;;;;;;;10.93;8.10;;;;;;;21.47;40.93;94771.31;5048688;28;20258;-52
2023/04/08 09:56:21;;;;;;;9.18;8.00;;;;;;;21.43;40.80;94770.91;5051467;28;20308;-54
2023/04/08 09:58:54;;;;;;;9.38;8.30;;;;;;;21.34;40.77;94758.34;5052702;28;20244;-54
2023/04/08 10:01:26;;;;;;;8.70;6.93;;;;;;;21.35;40.63;94759.94;5052278;28;20717;-52
2023/04/08 10:03:57;;;;;;;8.68;7.78;;;;;;;21.32;40.52;94763.72;5052787;28;20202;-55
2023/04/08 10:06:30;;;;;;;8.40;7.60;;;;;;;21.25;40.33;94763.72;5052085;28;20191;-51
2023/04/08 10:08:59;;;;;;;9.35;7.72;;;;;;;21.00;40.48;94741.91;5052196;28;20231;-53
2023/04/08 10:11:26;;;;;;;8.00;7.17;;;;;;;21.05;40.63;94757.72;5052079;28;20244;-53
2023/04/08 10:13:53;;;;;;;7.78;7.05;;;;;;;21.00;40.63;94760.91;5051928;28;20206;-57
2023/04/08 10:16:25;;;;;;;9.43;7.77;;;;;;;20.98;40.45;94756.91;5051281;28;20187;-54
2023/04/08 10:18:54;;;;;;;9.20;7.73;;;;;;;20.94;40.49;94750.50;5052290;28;20194;-54
2023/04/08 10:21:38;;;;;;;10.30;7.60;;;;;;;20.94;40.37;94751.34;5051432;28;20603;-52
2023/04/08 10:24:10;;;;;;;9.33;8.23;;;;;;;20.85;40.38;94757.69;5051848;28;20195;-52
2023/04/08 10:26:41;;;;;;;9.17;8.00;;;;;;;20.77;40.66;94752.72;5051820;28;20194;-52
2023/04/08 10:29:35;;;;;;;9.17;8.27;;;;;;;20.66;40.49;94754.09;5051787;28;20630;-55
2023/04/08 10:32:02;;;;;;;10.50;8.10;;;;;;;20.60;40.63;94749.72;5051774;28;20205;-53
2023/04/08 10:34:29;;;;;;;10.43;7.57;;;;;;;20.56;40.69;94747.69;5051600;28;20195;-53
2023/04/08 10:37:01;;;;;;;9.53;8.00;;;;;;;20.48;40.62;94748.69;5052095;28;20187;-54
2023/04/08 10:39:30;;;;;;;9.77;8.77;;;;;;;20.41;40.74;94745.22;5051179;28;20195;-55
2023/04/08 10:41:57;;;;;;;10.67;8.33;;;;;;;20.37;40.54;94747.41;5051646;28;20230;-53
2023/04/08 10:44:26;;;;;;;8.87;7.93;;;;;;;20.39;40.61;94734.25;5051423;28;20187;-56
2023/04/08 10:46:54;;;;;;;10.53;8.03;;;;;;;20.45;40.42;94734.25;5051525;28;20663;-54
2023/04/08 10:49:21;;;;;;;8.93;8.13;;;;;;;20.58;40.40;94728.31;5051145;28;20567;-53
2023/04/08 10:51:48;;;;;;;9.67;8.67;;;;;;;20.64;40.11;94727.53;5051384;28;20227;-57
2023/04/08 10:54:16;;;;;;;10.17;7.27;;;;;;;20.62;40.19;94724.31;5052070;28;20194;-52
2023/04/08 10:56:49;;;;;;;8.57;7.60;;;;;;;20.60;40.10;94715.94;5051632;28;20615;-54
2023/04/08 10:59:19;;;;;;;9.43;8.30;;;;;;;20.67;40.03;94723.72;5051651;28;20194;-54
2023/04/08 11:01:47;;;;;;;10.10;8.20;;;;;;;20.67;39.92;94721.91;5051396;28;20226;-54
2023/04/08 11:04:18;;;;;;;10.30;8.20;;;;;;;20.65;39.98;94710.13;5051398;28;20199;-53
2023/04/08 11:06:47;;;;;;;11.07;8.90;;;;;;;20.57;39.85;94710.31;5051027;28;20217;-53
2023/04/08 11:09:15;;;;;;;8.73;7.90;;;;;;;20.48;40.00;94707.91;5051209;28;20230;-53
2023/04/08 11:11:43;;;;;;;8.97;8.07;;;;;;;20.43;40.01;94710.28;5050774;28;20199;-54
2023/04/08 11:14:12;;;;;;;8.90;8.00;;;;;;;20.39;40.05;94709.06;5051069;28;20184;-54
2023/04/08 11:16:39;;;;;;;10.17;8.63;;;;;;;20.32;39.81;94687.47;5050814;28;20358;-54
2023/04/08 11:19:06;;;;;;;11.10;8.60;;;;;;;20.45;39.84;94702.28;5050903;28;20312;-54
2023/04/08 11:21:36;;;;;;;10.57;8.40;;;;;;;20.56;39.81;94700.94;5051069;28;20237;-56
2023/04/08 11:24:08;;;;;;;9.57;8.50;;;;;;;20.47;39.79;94669.91;5050818;28;20285;-54
2023/04/08 11:26:37;;;;;;;9.90;8.50;;;;;;;20.69;39.63;94690.53;5050809;28;20249;-52